BOX451 KJFK-EDDF
Flight info
| Callsign | BOX451 |
|---|---|
| Flight time | N/A |
| Altitude | 31000 |
| Route | JFK DCT DOVEY/M082F310 DCT 42N060W 44N050W/M082F330 46N040W 48N030W 49N020W DCT BEDRA DCT NASBA DCT GAPLI/N0473F330 DCT SIDDI/N0467F350 DCT DAWLY DCT GIBSO L620 SAM M140 DVR UL9 KONAN DCT KOK UL607 SPI T180 NIVNU T847 IMCOM IMCOM1D |
| Aircraft | B77L/H-SDE2E3GHIJ4J5M1P2RWXYZ/LB1D1 |
Departure
| Time | 2026-05-08 20:26 |
|---|---|
| Airport | John F. Kennedy International Airport (KJFK) |
Arrival
| Time | N/A |
|---|---|
| Airport | Frankfurt Main Airport (EDDF) |
| Time | Latitude | Longitude | Altitude | Speed | Heading |
|---|---|---|---|---|---|
| 2026-05-08 20:06 | 40.65042 | -73.80065 | 20 ft | 0 kts | 165° |
| 2026-05-08 20:13 | 40.65050 | -73.80068 | 21 ft | 3 kts | 169° |
| 2026-05-08 20:14 | 40.65069 | -73.80070 | 24 ft | 3 kts | 187° |
| 2026-05-08 20:14 | 40.65089 | -73.80067 | 21 ft | 3 kts | 180° |
| 2026-05-08 20:14 | 40.65104 | -73.80067 | 22 ft | 3 kts | 166° |
| 2026-05-08 20:14 | 40.65118 | -73.80073 | 22 ft | 3 kts | 133° |
| 2026-05-08 20:15 | 40.65127 | -73.80090 | 23 ft | 3 kts | 101° |
| 2026-05-08 20:15 | 40.65129 | -73.80113 | 25 ft | 2 kts | 91° |
| 2026-05-08 20:15 | 40.65129 | -73.80117 | 25 ft | 0 kts | 91° |
| 2026-05-08 20:17 | 40.65129 | -73.80098 | 24 ft | 7 kts | 91° |
| 2026-05-08 20:17 | 40.65131 | -73.79972 | 20 ft | 19 kts | 79° |
| 2026-05-08 20:17 | 40.65169 | -73.79829 | 20 ft | 7 kts | 101° |
| 2026-05-08 20:18 | 40.65135 | -73.79782 | 20 ft | 8 kts | 153° |
| 2026-05-08 20:18 | 40.65081 | -73.79745 | 20 ft | 10 kts | 153° |
| 2026-05-08 20:18 | 40.65014 | -73.79704 | 21 ft | 11 kts | 168° |
| 2026-05-08 20:18 | 40.64930 | -73.79704 | 20 ft | 13 kts | 180° |
| 2026-05-08 20:19 | 40.64834 | -73.79705 | 20 ft | 15 kts | 180° |
| 2026-05-08 20:19 | 40.64736 | -73.79657 | 21 ft | 16 kts | 153° |
| 2026-05-08 20:19 | 40.64645 | -73.79567 | 20 ft | 17 kts | 143° |
| 2026-05-08 20:19 | 40.64535 | -73.79508 | 20 ft | 18 kts | 172° |
| 2026-05-08 20:20 | 40.64413 | -73.79497 | 20 ft | 18 kts | 177° |
| 2026-05-08 20:20 | 40.64285 | -73.79496 | 20 ft | 18 kts | 182° |
| 2026-05-08 20:20 | 40.64157 | -73.79503 | 20 ft | 18 kts | 184° |
| 2026-05-08 20:20 | 40.64045 | -73.79435 | 21 ft | 19 kts | 128° |
| 2026-05-08 20:21 | 40.63975 | -73.79285 | 20 ft | 19 kts | 121° |
| 2026-05-08 20:21 | 40.63906 | -73.79132 | 20 ft | 19 kts | 121° |
| 2026-05-08 20:21 | 40.63837 | -73.78980 | 20 ft | 19 kts | 121° |
| 2026-05-08 20:21 | 40.63765 | -73.78826 | 21 ft | 20 kts | 121° |
| 2026-05-08 20:22 | 40.63693 | -73.78668 | 20 ft | 20 kts | 121° |
| 2026-05-08 20:22 | 40.63622 | -73.78509 | 20 ft | 20 kts | 121° |
| 2026-05-08 20:22 | 40.63549 | -73.78351 | 20 ft | 20 kts | 121° |
| 2026-05-08 20:22 | 40.63501 | -73.78246 | 20 ft | 20 kts | 121° |
| 2026-05-08 20:23 | 40.63404 | -73.78036 | 20 ft | 20 kts | 121° |
| 2026-05-08 20:23 | 40.63337 | -73.77877 | 26 ft | 20 kts | 116° |
| 2026-05-08 20:23 | 40.63268 | -73.77717 | 31 ft | 20 kts | 121° |
| 2026-05-08 20:23 | 40.63189 | -73.77547 | 24 ft | 23 kts | 121° |
| 2026-05-08 20:24 | 40.63102 | -73.77357 | 20 ft | 25 kts | 119° |
| 2026-05-08 20:24 | 40.63026 | -73.77184 | 20 ft | 13 kts | 121° |
| 2026-05-08 20:24 | 40.62976 | -73.77088 | 20 ft | 10 kts | 144° |
| 2026-05-08 20:24 | 40.62917 | -73.77110 | 23 ft | 1 kts | 212° |
| 2026-05-08 20:25 | 40.62911 | -73.77114 | 20 ft | 2 kts | 212° |
| 2026-05-08 20:25 | 40.62892 | -73.77130 | 21 ft | 7 kts | 212° |
| 2026-05-08 20:25 | 40.62816 | -73.77195 | 20 ft | 1 kts | 225° |
| 2026-05-08 20:25 | 40.62820 | -73.77217 | 20 ft | 7 kts | 296° |
| 2026-05-08 20:26 | 40.62908 | -73.77417 | 20 ft | 54 kts | 300° |
| 2026-05-08 20:26 | 40.63222 | -73.78109 | 25 ft | 125 kts | 301° |
| 2026-05-08 20:26 | 40.63790 | -73.79370 | 128 ft | 185 kts | 300° |
| 2026-05-08 20:26 | 40.64439 | -73.80818 | 1024 ft | 180 kts | 297° |
| 2026-05-08 20:27 | 40.65074 | -73.82209 | 1720 ft | 178 kts | 300° |
| 2026-05-08 20:27 | 40.65703 | -73.83659 | 1898 ft | 188 kts | 285° |
| 2026-05-08 20:27 | 40.65674 | -73.85412 | 2124 ft | 199 kts | 251° |
| 2026-05-08 20:27 | 40.64803 | -73.86888 | 2334 ft | 221 kts | 216° |
| 2026-05-08 20:28 | 40.63305 | -73.87660 | 2522 ft | 246 kts | 189° |
| 2026-05-08 20:28 | 40.61539 | -73.87422 | 2869 ft | 264 kts | 169° |
| 2026-05-08 20:28 | 40.59757 | -73.86758 | 3458 ft | 266 kts | 168° |
| 2026-05-08 20:28 | 40.57978 | -73.86049 | 4077 ft | 269 kts | 168° |
| 2026-05-08 20:29 | 40.56182 | -73.85323 | 4716 ft | 270 kts | 167° |
| 2026-05-08 20:29 | 40.54366 | -73.84585 | 5144 ft | 275 kts | 168° |
| 2026-05-08 20:29 | 40.52540 | -73.83834 | 5379 ft | 274 kts | 168° |
| 2026-05-08 20:29 | 40.50735 | -73.83048 | 5619 ft | 273 kts | 161° |
| 2026-05-08 20:30 | 40.49164 | -73.81548 | 5964 ft | 290 kts | 132° |
| 2026-05-08 20:30 | 40.48221 | -73.79174 | 6466 ft | 300 kts | 105° |
| 2026-05-08 20:30 | 40.48095 | -73.76469 | 6971 ft | 304 kts | 83° |
| 2026-05-08 20:30 | 40.48405 | -73.73698 | 7483 ft | 308 kts | 78° |
| 2026-05-08 20:31 | 40.48797 | -73.70920 | 8029 ft | 311 kts | 78° |
| 2026-05-08 20:31 | 40.49200 | -73.68119 | 8569 ft | 314 kts | 77° |
| 2026-05-08 20:31 | 40.49607 | -73.65281 | 9113 ft | 317 kts | 77° |
| 2026-05-08 20:31 | 40.50016 | -73.62417 | 9653 ft | 321 kts | 77° |
| 2026-05-08 20:32 | 40.50425 | -73.59524 | 10143 ft | 324 kts | 77° |
| 2026-05-08 20:32 | 40.50832 | -73.56599 | 10674 ft | 327 kts | 77° |
| 2026-05-08 20:32 | 40.51233 | -73.53637 | 11227 ft | 330 kts | 77° |
| 2026-05-08 20:32 | 40.51628 | -73.50647 | 11799 ft | 333 kts | 77° |
| 2026-05-08 20:33 | 40.52015 | -73.47638 | 12026 ft | 337 kts | 77° |
| 2026-05-08 20:33 | 40.52108 | -73.44558 | 11995 ft | 339 kts | 99° |
| 2026-05-08 20:33 | 40.51347 | -73.41648 | 12019 ft | 338 kts | 120° |
| 2026-05-08 20:33 | 40.50136 | -73.38994 | 12017 ft | 339 kts | 126° |
| 2026-05-08 20:34 | 40.48819 | -73.36396 | 12050 ft | 348 kts | 127° |
| 2026-05-08 20:34 | 40.47407 | -73.33679 | 12067 ft | 373 kts | 127° |
| 2026-05-08 20:34 | 40.44248 | -73.27698 | 12046 ft | 417 kts | 127° |
| 2026-05-08 20:35 | 40.42583 | -73.24571 | 12016 ft | 419 kts | 127° |
| 2026-05-08 20:35 | 40.40903 | -73.21427 | 12079 ft | 423 kts | 127° |
| 2026-05-08 20:35 | 40.39205 | -73.18256 | 12726 ft | 427 kts | 127° |
| 2026-05-08 20:35 | 40.37484 | -73.15057 | 13485 ft | 431 kts | 127° |
| 2026-05-08 20:36 | 40.35743 | -73.11836 | 14123 ft | 436 kts | 127° |
| 2026-05-08 20:36 | 40.33997 | -73.08616 | 14689 ft | 441 kts | 127° |
| 2026-05-08 20:36 | 40.32207 | -73.05316 | 15278 ft | 446 kts | 127° |
| 2026-05-08 20:36 | 40.30403 | -73.01985 | 15883 ft | 451 kts | 127° |
| 2026-05-08 20:37 | 40.28585 | -72.98618 | 16472 ft | 455 kts | 127° |
| 2026-05-08 20:37 | 40.26751 | -72.95211 | 17055 ft | 460 kts | 127° |
| 2026-05-08 20:37 | 40.24903 | -72.91766 | 17639 ft | 465 kts | 127° |
| 2026-05-08 20:37 | 40.23040 | -72.88281 | 18228 ft | 469 kts | 127° |
| 2026-05-08 20:38 | 40.21167 | -72.84762 | 18726 ft | 473 kts | 127° |
| 2026-05-08 20:38 | 40.19285 | -72.81211 | 19274 ft | 476 kts | 127° |
| 2026-05-08 20:38 | 40.17397 | -72.77633 | 19787 ft | 479 kts | 127° |
| 2026-05-08 20:38 | 40.15504 | -72.74026 | 20304 ft | 483 kts | 127° |
| 2026-05-08 20:39 | 40.13603 | -72.70388 | 20780 ft | 487 kts | 127° |
| 2026-05-08 20:39 | 40.11692 | -72.66718 | 21289 ft | 490 kts | 127° |
| 2026-05-08 20:39 | 40.09773 | -72.63020 | 21795 ft | 494 kts | 127° |
| 2026-05-08 20:39 | 40.08470 | -72.60499 | 22111 ft | 496 kts | 127° |
| 2026-05-08 20:40 | 40.06557 | -72.56792 | 22579 ft | 500 kts | 127° |
| 2026-05-08 20:40 | 40.04611 | -72.53009 | 22991 ft | 504 kts | 127° |
| 2026-05-08 20:40 | 40.02622 | -72.49136 | 22975 ft | 508 kts | 127° |
| 2026-05-08 20:40 | 40.00686 | -72.45357 | 22980 ft | 506 kts | 127° |
| 2026-05-08 20:41 | 39.98737 | -72.41547 | 22983 ft | 504 kts | 127° |
| 2026-05-08 20:41 | 39.96792 | -72.37740 | 22981 ft | 505 kts | 127° |
| 2026-05-08 20:41 | 39.94842 | -72.33924 | 22991 ft | 506 kts | 127° |
| 2026-05-08 20:41 | 39.92892 | -72.30107 | 22994 ft | 507 kts | 127° |
| 2026-05-08 20:42 | 39.91067 | -72.26182 | 23026 ft | 510 kts | 115° |
| 2026-05-08 20:42 | 39.90137 | -72.21694 | 23336 ft | 517 kts | 93° |
| 2026-05-08 20:42 | 39.90285 | -72.17048 | 23792 ft | 514 kts | 77° |
| 2026-05-08 20:42 | 39.91135 | -72.12539 | 24262 ft | 511 kts | 68° |
| 2026-05-08 20:43 | 39.92336 | -72.08189 | 24628 ft | 512 kts | 64° |
| 2026-05-08 20:43 | 39.93675 | -72.03878 | 24990 ft | 515 kts | 63° |
| 2026-05-08 20:43 | 39.95029 | -71.99541 | 25366 ft | 518 kts | 63° |
| 2026-05-08 20:43 | 39.96338 | -71.95150 | 25762 ft | 522 kts | 65° |
| 2026-05-08 20:44 | 39.97594 | -71.90691 | 26146 ft | 525 kts | 66° |
| 2026-05-08 20:44 | 39.98802 | -71.86180 | 26526 ft | 529 kts | 67° |
| 2026-05-08 20:44 | 39.99983 | -71.81622 | 26899 ft | 532 kts | 67° |
| 2026-05-08 20:44 | 40.01149 | -71.77037 | 27272 ft | 535 kts | 68° |
| 2026-05-08 20:45 | 40.02317 | -71.72416 | 27623 ft | 538 kts | 68° |
| 2026-05-08 20:45 | 40.03490 | -71.67769 | 27979 ft | 541 kts | 68° |
| 2026-05-08 20:45 | 40.04677 | -71.63084 | 28312 ft | 543 kts | 68° |
| 2026-05-08 20:45 | 40.05867 | -71.58389 | 28653 ft | 546 kts | 68° |
| 2026-05-08 20:46 | 40.07063 | -71.53682 | 28980 ft | 548 kts | 68° |
| 2026-05-08 20:46 | 40.08262 | -71.48954 | 29408 ft | 548 kts | 68° |
| 2026-05-08 20:46 | 40.09459 | -71.44227 | 29913 ft | 547 kts | 68° |
| 2026-05-08 20:46 | 40.10649 | -71.39519 | 30323 ft | 546 kts | 68° |
| 2026-05-08 20:47 | 40.11839 | -71.34805 | 30663 ft | 546 kts | 68° |